Time;durP1;ratioP1;P1;durP2;ratioP2;P2;SDS_P1;SDS_P2;PMS_P1;PMS_P2;Temp;Humidity;BMP_temperature;BMP_pressure;BME280_temperature;BME280_humidity;BME280_pressure;Samples;Min_cycle;Max_cycle;Signal;HPM_P1;HPM_P2
2022/03/10 00:00:48;;;;;;;3.90;3.20;;;;;;;9.71;44.60;100621.92;1825266;78;21061;-68
2022/03/10 00:03:14;;;;;;;3.83;3.25;;;;;;;9.71;44.60;100623.74;1826615;78;21006;-68
2022/03/10 00:05:41;;;;;;;3.30;2.87;;;;;;;9.70;44.62;100626.89;1826708;78;21198;-68
2022/03/10 00:08:07;;;;;;;3.02;2.72;;;;;;;9.69;44.63;100623.05;1736965;78;21045;-68
2022/03/10 00:10:34;;;;;;;3.27;2.95;;;;;;;9.69;44.61;100630.52;1826630;78;20994;-67
2022/03/10 00:13:00;;;;;;;3.62;3.10;;;;;;;9.69;44.65;100641.63;1822926;78;21049;-69
2022/03/10 00:15:28;;;;;;;3.15;2.85;;;;;;;9.68;44.64;100637.28;1814640;79;21536;-68
2022/03/10 00:17:54;;;;;;;3.10;2.80;;;;;;;9.68;44.65;100647.89;1811046;78;22105;-68
2022/03/10 00:20:21;;;;;;;3.17;2.87;;;;;;;9.67;44.66;100645.73;1794034;80;21014;-69
2022/03/10 00:22:51;;;;;;;3.20;2.90;;;;;;;9.65;44.63;100643.71;1793794;78;21044;-69
2022/03/10 00:25:18;;;;;;;3.45;3.15;;;;;;;9.64;44.63;100645.54;1794065;80;21045;-68
2022/03/10 00:27:46;;;;;;;2.98;2.67;;;;;;;9.64;44.61;100650.84;1794001;80;21005;-68
2022/03/10 00:30:14;;;;;;;3.20;2.90;;;;;;;9.64;44.64;100646.86;1794062;79;21527;-68
2022/03/10 00:32:49;;;;;;;3.77;3.25;;;;;;;9.63;44.64;100652.30;1822700;78;21001;-68
2022/03/10 00:35:21;;;;;;;3.40;2.83;;;;;;;9.63;44.63;100652.30;1824970;78;20994;-68
2022/03/10 00:37:47;;;;;;;3.62;3.25;;;;;;;9.60;44.63;100650.78;1825834;78;21018;-68
2022/03/10 00:40:15;;;;;;;3.15;2.85;;;;;;;9.60;44.64;100651.24;1826194;78;21060;-69
2022/03/10 00:42:43;;;;;;;3.75;3.02;;;;;;;9.59;44.65;100655.72;1825783;78;21300;-68
2022/03/10 00:45:10;;;;;;;3.72;3.22;;;;;;;9.59;44.65;100657.55;1825928;78;21006;-68
2022/03/10 00:47:37;;;;;;;3.27;2.67;;;;;;;9.58;44.66;100660.69;1825800;78;21056;-68
2022/03/10 00:50:06;;;;;;;3.00;2.67;;;;;;;9.58;44.65;100658.50;1825899;78;21013;-68
2022/03/10 00:52:33;;;;;;;3.08;2.60;;;;;;;9.56;44.66;100661.32;1824786;78;21139;-68
2022/03/10 00:55:00;;;;;;;3.52;3.22;;;;;;;9.57;44.65;100659.50;1805421;78;21203;-68
2022/03/10 00:57:26;;;;;;;3.12;2.80;;;;;;;9.55;44.66;100654.33;1825824;78;21056;-68
2022/03/10 00:59:53;;;;;;;3.33;2.90;;;;;;;9.54;44.65;100667.25;1825892;78;21057;-68
2022/03/10 01:02:19;;;;;;;3.52;3.20;;;;;;;9.54;44.62;100667.25;1826205;78;21026;-68
2022/03/10 01:04:46;;;;;;;3.65;3.22;;;;;;;9.54;44.64;100669.05;1825869;78;21005;-70
2022/03/10 01:07:12;;;;;;;3.47;3.15;;;;;;;9.53;44.63;100672.20;1825985;78;21235;-68
2022/03/10 01:09:40;;;;;;;3.37;2.52;;;;;;;9.53;44.61;100672.70;1824627;78;21018;-69
2022/03/10 01:12:06;;;;;;;3.27;2.72;;;;;;;9.52;44.63;100675.84;1825953;78;21019;-69
2022/03/10 01:14:33;;;;;;;3.47;3.12;;;;;;;9.52;44.61;100680.28;1825931;78;21049;-68
2022/03/10 01:17:01;;;;;;;4.08;3.00;;;;;;;9.52;44.60;100677.63;1823999;78;21002;-68
2022/03/10 01:19:29;;;;;;;3.30;3.00;;;;;;;9.51;44.59;100677.30;1820455;78;21041;-68
2022/03/10 01:21:56;;;;;;;3.35;3.02;;;;;;;9.50;44.61;100685.72;1825726;78;20986;-69
2022/03/10 01:24:24;;;;;;;3.52;3.15;;;;;;;9.49;44.60;100683.23;1825799;78;21076;-68
2022/03/10 01:26:50;;;;;;;3.20;2.90;;;;;;;9.48;44.60;100685.02;1806711;78;21037;-68
2022/03/10 01:29:17;;;;;;;3.52;3.10;;;;;;;9.48;44.57;100706.25;1793483;79;21032;-68
2022/03/10 01:31:45;;;;;;;3.17;2.87;;;;;;;9.47;44.58;100704.58;1809523;78;21801;-68
2022/03/10 01:34:13;;;;;;;2.77;2.50;;;;;;;9.47;44.58;100698.45;1825755;78;21537;-68
2022/03/10 01:36:40;;;;;;;3.70;3.00;;;;;;;9.45;44.58;100706.05;1825858;78;21028;-68
2022/03/10 01:39:07;;;;;;;3.25;2.92;;;;;;;9.44;44.56;100708.36;1826003;78;21060;-69
2022/03/10 01:41:34;;;;;;;3.47;3.00;;;;;;;9.43;44.55;100711.97;1825799;78;20990;-70
2022/03/10 01:44:06;;;;;;;2.80;2.50;;;;;;;9.44;44.56;100721.63;1824869;78;21058;-69
2022/03/10 01:46:33;;;;;;;3.33;2.95;;;;;;;9.43;44.54;100727.89;1825527;78;21002;-68
2022/03/10 01:48:59;;;;;;;3.30;2.90;;;;;;;9.42;44.55;100735.48;1825914;78;21021;-69
2022/03/10 01:51:26;;;;;;;3.12;2.75;;;;;;;9.41;44.55;100738.30;1825860;78;21029;-69
2022/03/10 01:53:54;;;;;;;4.00;3.10;;;;;;;9.41;44.53;100743.09;1825785;78;21021;-68
2022/03/10 01:56:22;;;;;;;2.83;2.52;;;;;;;9.39;44.51;100746.88;1825848;78;21227;-68
2022/03/10 01:58:50;;;;;;;3.33;2.87;;;;;;;9.38;44.51;100732.75;1825708;78;21014;-68
2022/03/10 02:01:19;;;;;;;3.22;2.60;;;;;;;9.38;44.54;100763.74;1824967;78;21072;-69
2022/03/10 02:03:46;;;;;;;3.05;2.72;;;;;;;9.36;44.49;100755.92;1825663;78;21458;-68
2022/03/10 02:06:13;;;;;;;2.92;2.60;;;;;;;9.35;44.49;100756.05;1825860;78;20958;-68
2022/03/10 02:11:26;;;;;;;3.55;2.83;;;;;;;9.34;44.44;100763.66;1825853;78;21006;-69
2022/03/10 02:13:53;;;;;;;2.70;2.50;;;;;;;9.33;44.44;100764.62;1825807;77;21049;-69
2022/03/10 02:19:05;;;;;;;3.27;2.47;;;;;;;9.30;44.43;100764.42;1825861;78;21021;-68
2022/03/10 02:21:32;;;;;;;3.08;2.77;;;;;;;9.29;44.42;100779.13;1825807;78;21239;-68
2022/03/10 02:24:00;;;;;;;3.02;2.65;;;;;;;9.27;44.43;100777.94;1825026;77;21471;-68
2022/03/10 02:26:27;;;;;;;3.35;2.95;;;;;;;9.25;44.43;100786.05;1831986;78;21054;-69
2022/03/10 02:28:53;;;;;;;3.27;2.98;;;;;;;9.24;44.41;100783.03;1832201;78;21007;-68
2022/03/10 02:31:21;;;;;;;3.02;2.52;;;;;;;9.24;44.41;100788.33;1831926;78;21023;-69
2022/03/10 02:33:48;;;;;;;3.87;2.70;;;;;;;9.22;44.39;100787.62;1826934;78;21228;-68
2022/03/10 02:36:14;;;;;;;3.27;2.67;;;;;;;9.23;44.38;100792.44;1799383;79;20981;-68
2022/03/10 02:38:41;;;;;;;2.62;2.42;;;;;;;9.22;44.36;100796.08;1799136;79;21005;-68
2022/03/10 02:41:08;;;;;;;4.85;3.12;;;;;;;9.20;44.37;100802.83;1799283;79;21013;-69
2022/03/10 02:43:36;;;;;;;2.83;2.52;;;;;;;9.19;44.35;100793.68;1799132;79;21016;-68
2022/03/10 02:46:02;;;;;;;4.25;2.77;;;;;;;9.19;44.35;100805.61;1799388;79;21991;-68
2022/03/10 02:48:29;;;;;;;4.12;2.90;;;;;;;9.17;44.36;100804.41;1799179;79;21010;-67
2022/03/10 02:50:56;;;;;;;3.12;2.83;;;;;;;9.16;44.35;100808.05;1800262;78;20974;-68
2022/03/10 02:53:23;;;;;;;3.90;2.45;;;;;;;9.15;44.34;100811.66;1799258;79;21060;-69
2022/03/10 02:55:50;;;;;;;3.20;2.77;;;;;;;9.15;44.34;100814.80;1799140;79;21016;-68
2022/03/10 02:58:17;;;;;;;3.15;2.77;;;;;;;9.13;44.33;100818.91;1799414;79;21529;-68
2022/03/10 03:00:44;;;;;;;2.72;2.40;;;;;;;9.12;44.31;100826.52;1799013;79;21489;-68
2022/03/10 03:03:11;;;;;;;2.58;2.37;;;;;;;9.11;44.31;100823.50;1799226;79;21557;-68
2022/03/10 03:05:38;;;;;;;2.70;2.50;;;;;;;9.10;44.30;100825.81;1799239;79;21064;-68
2022/03/10 03:08:04;;;;;;;2.70;2.50;;;;;;;9.09;44.29;100832.57;1800277;78;21040;-68
2022/03/10 03:10:36;;;;;;;2.65;2.42;;;;;;;9.07;44.30;100836.67;1799196;79;20982;-68
2022/03/10 03:13:00;;;;;;;3.00;2.70;;;;;;;9.07;44.31;100836.67;1802539;77;21251;-69
2022/03/10 03:15:27;;;;;;;3.30;2.85;;;;;;;9.07;44.28;100840.65;1832271;77;21061;-68
2022/03/10 03:17:55;;;;;;;3.55;2.80;;;;;;;9.06;44.26;100844.29;1831765;77;21014;-69
2022/03/10 03:20:22;;;;;;;3.47;2.98;;;;;;;9.04;44.29;100846.23;1832202;78;21041;-69
2022/03/10 03:22:49;;;;;;;2.92;2.65;;;;;;;9.03;44.28;100849.84;1831936;77;21526;-68
2022/03/10 03:25:16;;;;;;;3.08;2.75;;;;;;;9.00;44.29;100849.63;1824964;78;21069;-69
2022/03/10 03:27:44;;;;;;;3.72;2.90;;;;;;;9.00;44.28;100862.02;1822788;78;21508;-68
2022/03/10 03:30:11;;;;;;;3.33;3.02;;;;;;;8.99;44.28;100857.70;1821474;78;21041;-68
2022/03/10 03:32:38;;;;;;;3.10;2.80;;;;;;;8.97;44.27;100871.08;1825814;78;21002;-68
2022/03/10 03:35:05;;;;;;;2.55;2.35;;;;;;;8.96;44.26;100872.06;1826122;78;21201;-68
2022/03/10 03:37:31;;;;;;;3.37;2.75;;;;;;;8.96;44.26;100872.52;1825749;78;21006;-68
2022/03/10 03:39:57;;;;;;;3.00;2.33;;;;;;;8.96;44.25;100873.84;1825650;78;21056;-69
2022/03/10 03:42:29;;;;;;;2.90;2.50;;;;;;;8.94;44.25;100877.12;1812340;78;21056;-68
2022/03/10 03:44:54;;;;;;;3.42;2.80;;;;;;;8.93;44.24;100880.26;1793190;79;21536;-68
2022/03/10 03:47:20;;;;;;;3.08;2.77;;;;;;;8.93;44.26;100888.70;1793357;79;21249;-69
2022/03/10 03:49:46;;;;;;;4.17;2.83;;;;;;;8.91;44.23;100889.32;1793496;80;22043;-68
2022/03/10 03:52:13;;;;;;;3.08;2.77;;;;;;;8.90;44.22;100891.59;1793242;79;21064;-68
2022/03/10 03:54:39;;;;;;;2.65;2.33;;;;;;;8.88;44.21;100894.37;1793278;80;21026;-68
2022/03/10 03:57:06;;;;;;;2.80;2.50;;;;;;;8.87;44.23;100895.85;1793269;80;21021;-67
2022/03/10 03:59:33;;;;;;;3.17;2.75;;;;;;;8.87;44.19;100897.17;1794495;78;22045;-68
2022/03/10 04:01:59;;;;;;;2.72;2.42;;;;;;;8.84;44.23;100897.76;1793175;80;21014;-67
2022/03/10 04:04:26;;;;;;;2.95;2.65;;;;;;;8.84;44.21;100901.73;1793592;80;21007;-68
2022/03/10 04:06:52;;;;;;;3.45;2.83;;;;;;;8.83;44.21;100902.72;1793226;80;20978;-68
2022/03/10 04:09:18;;;;;;;3.35;2.85;;;;;;;8.82;44.22;100906.32;1793609;80;21028;-69
2022/03/10 04:11:45;;;;;;;3.52;2.98;;;;;;;8.81;44.20;100908.63;1793424;80;21238;-68
2022/03/10 04:14:12;;;;;;;3.02;2.62;;;;;;;8.80;44.20;100910.91;1812776;77;20974;-68
2022/03/10 04:16:39;;;;;;;3.17;2.87;;;;;;;8.79;44.20;100909.25;1824835;78;20976;-68
2022/03/10 04:19:05;;;;;;;3.10;2.80;;;;;;;8.79;44.21;100917.20;1826324;78;21505;-67
2022/03/10 04:21:32;;;;;;;3.65;2.87;;;;;;;8.77;44.18;100921.78;1825803;78;20965;-69
2022/03/10 04:24:01;;;;;;;2.90;2.60;;;;;;;8.77;44.20;100918.27;1827693;77;21001;-69
2022/03/10 04:26:27;;;;;;;3.45;2.67;;;;;;;8.76;44.18;100916.11;1831970;77;21010;-68
2022/03/10 04:28:54;;;;;;;3.30;2.90;;;;;;;8.75;44.17;100925.05;1831923;78;21068;-69
2022/03/10 04:31:21;;;;;;;2.80;2.60;;;;;;;8.74;44.18;100925.17;1831939;78;21071;-68
2022/03/10 04:33:49;;;;;;;3.05;2.72;;;;;;;8.73;44.17;100925.66;1827306;77;21055;-68
2022/03/10 04:36:16;;;;;;;3.35;2.80;;;;;;;8.72;44.17;100929.27;1832081;78;21218;-67
2022/03/10 04:38:42;;;;;;;3.80;3.20;;;;;;;8.72;44.16;100937.21;1831907;78;21012;-68
2022/03/10 04:41:09;;;;;;;2.50;2.27;;;;;;;8.71;44.16;100940.84;1832068;78;21013;-68
2022/03/10 04:43:35;;;;;;;3.45;2.70;;;;;;;8.71;44.15;100934.69;1831978;77;21022;-68
2022/03/10 04:46:03;;;;;;;2.98;2.58;;;;;;;8.70;44.15;100942.29;1832074;78;21009;-69
2022/03/10 04:48:31;;;;;;;2.72;2.40;;;;;;;8.70;44.13;100948.91;1831941;77;22158;-69
2022/03/10 04:50:57;;;;;;;3.10;2.70;;;;;;;8.68;44.14;100955.66;1811127;78;21025;-67
2022/03/10 04:53:24;;;;;;;2.58;2.37;;;;;;;8.68;44.12;100952.17;1799390;79;21021;-68
2022/03/10 04:55:52;;;;;;;3.72;2.85;;;;;;;8.67;44.12;100963.23;1799272;79;21464;-68
2022/03/10 04:58:18;;;;;;;3.33;2.70;;;;;;;8.67;44.13;100961.91;1799386;79;21001;-68
2022/03/10 05:00:44;;;;;;;3.58;3.02;;;;;;;8.65;44.12;100960.73;1799167;79;21326;-68
2022/03/10 05:03:13;;;;;;;3.37;2.70;;;;;;;8.66;44.13;100965.05;1799427;79;21000;-68
2022/03/10 05:05:39;;;;;;;3.15;2.83;;;;;;;8.65;44.13;100967.81;1799243;79;21005;-68
2022/03/10 05:08:07;;;;;;;4.53;2.65;;;;;;;8.65;44.11;100971.79;1800336;78;21037;-68
2022/03/10 05:10:34;;;;;;;3.27;2.70;;;;;;;8.63;44.14;100965.32;1799181;79;21005;-67
2022/03/10 05:13:01;;;;;;;2.87;2.60;;;;;;;8.63;44.12;100970.62;1802528;77;21211;-68
2022/03/10 05:15:32;;;;;;;3.05;2.75;;;;;;;8.63;44.12;100971.94;1831872;77;20981;-68
2022/03/10 05:18:03;;;;;;;2.85;2.42;;;;;;;8.62;44.12;100971.56;1832294;77;21505;-68
2022/03/10 05:20:30;;;;;;;4.80;3.08;;;;;;;8.64;44.11;100979.40;1831937;77;21077;-69
2022/03/10 05:23:00;;;;;;;3.58;3.15;;;;;;;8.63;44.12;100977.23;1831858;77;21029;-68
2022/03/10 05:25:39;;;;;;;3.22;2.65;;;;;;;8.63;44.12;100983.86;1830927;77;21221;-68
2022/03/10 05:28:11;;;;;;;3.33;2.87;;;;;;;8.64;44.10;100981.55;1832086;77;20950;-68
2022/03/10 05:30:36;;;;;;;3.40;2.80;;;;;;;8.64;44.10;100985.53;1831905;77;21478;-68
2022/03/10 05:33:02;;;;;;;2.58;2.37;;;;;;;8.65;44.10;100987.69;1832005;78;20966;-68
2022/03/10 05:35:30;;;;;;;2.60;2.40;;;;;;;8.65;44.10;100986.36;1832037;78;20990;-68
2022/03/10 05:37:56;;;;;;;2.95;2.62;;;;;;;8.67;44.09;100984.42;1831919;77;21211;-67
2022/03/10 05:40:23;;;;;;;3.27;2.80;;;;;;;8.66;44.09;100979.62;1831673;78;21084;-68
2022/03/10 05:42:52;;;;;;;3.20;2.83;;;;;;;8.67;44.07;100992.38;1794718;80;20988;-68
2022/03/10 05:45:21;;;;;;;3.50;2.33;;;;;;;8.68;44.06;100992.75;1778581;80;21089;-68
2022/03/10 05:47:50;;;;;;;2.75;2.30;;;;;;;8.69;44.06;100984.31;1778395;80;21038;-68
2022/03/10 05:50:17;;;;;;;3.30;2.40;;;;;;;8.70;44.06;100988.66;1778368;80;21930;-68
2022/03/10 05:52:45;;;;;;;3.00;2.30;;;;;;;8.71;44.02;100994.30;1778572;80;21065;-68
2022/03/10 05:55:15;;;;;;;3.10;2.50;;;;;;;8.72;44.03;101002.13;1778715;80;21033;-68
2022/03/10 05:57:42;;;;;;;2.77;2.47;;;;;;;8.73;44.02;101001.62;1777230;80;21021;-67
2022/03/10 06:00:11;;;;;;;2.77;2.22;;;;;;;8.74;44.00;101009.46;1778397;80;21030;-68
2022/03/10 06:02:40;;;;;;;2.95;2.62;;;;;;;8.74;44.00;101003.33;1778529;80;21184;-68
2022/03/10 06:05:07;;;;;;;3.02;2.72;;;;;;;8.76;44.00;101008.02;1778236;80;21022;-69
2022/03/10 06:07:34;;;;;;;3.12;2.58;;;;;;;8.76;43.99;101008.02;1778354;80;20998;-68
2022/03/10 06:10:01;;;;;;;2.77;2.35;;;;;;;8.77;43.99;101008.36;1778542;80;21529;-68
2022/03/10 06:12:27;;;;;;;3.02;2.27;;;;;;;8.79;43.97;101003.80;1778323;80;21584;-68
2022/03/10 06:14:59;;;;;;;2.95;2.47;;;;;;;8.80;43.94;101016.91;1785897;79;21130;-68
2022/03/10 06:17:26;;;;;;;3.85;2.80;;;;;;;8.81;43.93;101011.98;1787054;80;21029;-68
2022/03/10 06:19:52;;;;;;;2.90;2.25;;;;;;;8.82;43.91;101015.45;1786849;80;21034;-68
2022/03/10 06:22:21;;;;;;;3.20;2.77;;;;;;;8.83;43.90;101015.34;1786814;80;21084;-69
2022/03/10 06:24:47;;;;;;;3.05;2.40;;;;;;;8.85;43.92;101018.70;1789906;80;21068;-68
2022/03/10 06:27:17;;;;;;;2.52;2.33;;;;;;;8.86;43.88;101022.19;1795255;80;21226;-68
2022/03/10 06:29:44;;;;;;;3.40;2.80;;;;;;;8.87;43.89;101013.28;1795365;80;21067;-68
2022/03/10 06:32:12;;;;;;;2.85;2.45;;;;;;;8.88;43.87;101024.72;1763639;81;20972;-66
2022/03/10 06:34:39;;;;;;;2.98;2.30;;;;;;;8.88;43.88;101016.27;1795080;80;21020;-68
2022/03/10 06:37:06;;;;;;;2.85;2.50;;;;;;;8.90;43.84;101028.91;1764227;81;20985;-68
2022/03/10 06:39:33;;;;;;;2.45;2.20;;;;;;;8.92;43.85;101028.80;1795174;80;22184;-68
2022/03/10 06:42:00;;;;;;;2.65;2.30;;;;;;;8.92;43.83;101025.65;1795423;80;20993;-69
2022/03/10 06:44:27;;;;;;;3.20;2.90;;;;;;;8.94;43.82;101032.16;1765401;79;21036;-68
2022/03/10 06:46:53;;;;;;;2.85;2.40;;;;;;;8.96;43.83;101020.95;1763829;81;22153;-68
2022/03/10 06:49:21;;;;;;;2.83;2.50;;;;;;;8.97;43.82;101023.97;1790875;79;21075;-68
2022/03/10 06:51:48;;;;;;;2.30;2.10;;;;;;;8.98;43.80;101021.20;1755631;81;22689;-67
2022/03/10 06:54:16;;;;;;;3.27;2.85;;;;;;;8.99;43.79;101028.66;1755676;81;21044;-68
2022/03/10 06:56:42;;;;;;;2.52;2.33;;;;;;;9.00;43.78;101013.09;1755660;81;20991;-68
2022/03/10 06:59:09;;;;;;;2.60;2.30;;;;;;;9.02;43.79;101028.38;1756092;81;21021;-68
2022/03/10 07:01:35;;;;;;;3.33;2.83;;;;;;;9.02;43.76;101027.92;1755618;81;21549;-67
2022/03/10 07:04:02;;;;;;;2.92;2.27;;;;;;;9.05;43.75;101030.80;1755808;81;21229;-68
2022/03/10 07:06:28;;;;;;;2.62;2.27;;;;;;;9.05;43.73;101034.77;1756657;80;21037;-68
2022/03/10 07:08:56;;;;;;;3.12;2.55;;;;;;;9.08;43.72;101038.51;1755704;81;22023;-68
2022/03/10 07:11:25;;;;;;;2.80;2.40;;;;;;;9.09;43.72;101034.04;1755808;81;21076;-68
2022/03/10 07:13:52;;;;;;;2.83;2.30;;;;;;;9.10;43.71;101032.59;1769773;79;21033;-68
2022/03/10 07:16:18;;;;;;;2.98;2.50;;;;;;;9.12;43.68;101031.15;1786837;80;21220;-67
2022/03/10 07:18:50;;;;;;;2.60;2.40;;;;;;;9.13;43.68;101031.00;1786824;80;21017;-69
2022/03/10 07:21:14;;;;;;;2.77;2.12;;;;;;;9.14;43.68;101034.02;1785517;80;21038;-68
2022/03/10 07:23:40;;;;;;;3.02;2.37;;;;;;;9.17;43.65;101031.59;1785769;80;21053;-68
2022/03/10 07:26:07;;;;;;;2.17;1.80;;;;;;;9.18;43.65;101035.94;1784613;80;21501;-67
2022/03/10 07:28:33;;;;;;;3.12;2.37;;;;;;;9.19;43.61;101025.67;1783953;80;22170;-68
2022/03/10 07:30:59;;;;;;;2.83;2.45;;;;;;;9.21;43.62;101040.97;1783803;80;21545;-67
2022/03/10 07:33:26;;;;;;;3.10;2.35;;;;;;;9.22;43.58;101042.17;1783788;80;21033;-68
2022/03/10 07:35:53;;;;;;;3.00;2.65;;;;;;;9.23;43.60;101037.23;1784053;80;21026;-68
2022/03/10 07:38:19;;;;;;;2.80;2.25;;;;;;;9.25;43.57;101045.91;1783802;80;21030;-68
2022/03/10 07:40:46;;;;;;;2.90;2.35;;;;;;;9.29;43.54;101038.54;1782700;80;21278;-69
2022/03/10 07:43:12;;;;;;;2.83;2.22;;;;;;;9.31;43.51;101031.76;1784066;80;21576;-67
2022/03/10 07:45:40;;;;;;;2.62;2.17;;;;;;;9.31;43.50;101023.80;1783979;80;21061;-68
2022/03/10 07:48:06;;;;;;;2.62;2.35;;;;;;;9.32;43.48;101042.24;1783870;80;21002;-68
2022/03/10 07:50:33;;;;;;;2.45;2.25;;;;;;;9.35;43.45;101025.22;1777431;79;21020;-69
2022/03/10 07:52:59;;;;;;;2.72;2.30;;;;;;;9.36;43.43;101043.66;1784317;80;21223;-68
2022/03/10 07:55:26;;;;;;;2.90;2.25;;;;;;;9.38;43.39;101029.79;1784003;80;21054;-68
2022/03/10 07:57:52;;;;;;;2.70;2.42;;;;;;;9.40;43.40;101023.03;1765841;80;21509;-68
2022/03/10 08:00:18;;;;;;;3.25;2.40;;;;;;;9.41;43.37;101039.32;1752856;81;21544;-68
2022/03/10 08:02:45;;;;;;;3.75;2.80;;;;;;;9.43;43.34;101040.86;1752926;81;21491;-68
2022/03/10 08:05:11;;;;;;;2.45;2.20;;;;;;;9.46;43.31;101041.08;1752972;81;21489;-68
2022/03/10 08:07:39;;;;;;;2.35;2.10;;;;;;;9.47;43.29;101035.31;1752826;81;21037;-69
2022/03/10 08:10:08;;;;;;;2.60;2.40;;;;;;;9.48;43.25;101043.12;1752898;81;21034;-69
2022/03/10 08:12:34;;;;;;;3.15;2.27;;;;;;;9.50;43.23;101034.55;1753199;81;21022;-68
2022/03/10 08:15:02;;;;;;;2.45;2.20;;;;;;;9.52;43.18;101037.07;1780912;80;21025;-68
2022/03/10 08:17:30;;;;;;;3.02;2.37;;;;;;;9.54;43.19;101039.11;1783909;80;20991;-68
2022/03/10 08:19:58;;;;;;;3.05;2.27;;;;;;;9.56;43.18;101037.16;1783765;80;20993;-68
2022/03/10 08:22:24;;;;;;;2.65;2.27;;;;;;;9.57;43.15;101022.95;1784003;80;21002;-69
2022/03/10 08:24:51;;;;;;;2.00;1.77;;;;;;;9.60;43.16;101029.30;1784074;80;21006;-68
2022/03/10 08:27:17;;;;;;;2.50;2.20;;;;;;;9.61;43.15;101033.16;1787079;80;21021;-68
2022/03/10 08:29:44;;;;;;;2.42;2.22;;;;;;;9.64;43.11;101038.70;1786912;80;21212;-68
2022/03/10 08:32:11;;;;;;;3.17;2.60;;;;;;;9.65;43.14;101017.81;1785947;80;21041;-68
2022/03/10 08:34:37;;;;;;;3.15;2.35;;;;;;;9.70;43.13;101037.34;1786860;80;21537;-69
2022/03/10 08:37:04;;;;;;;3.37;2.33;;;;;;;9.73;43.11;101017.16;1786928;80;21021;-68
2022/03/10 08:39:31;;;;;;;2.67;2.33;;;;;;;9.76;43.09;101019.56;1786961;80;21033;-68
2022/03/10 08:42:00;;;;;;;3.12;2.50;;;;;;;9.79;43.10;101021.94;1787056;80;21117;-68
2022/03/10 08:44:27;;;;;;;2.10;1.87;;;;;;;9.81;43.10;101026.17;1786983;80;21014;-68
2022/03/10 08:46:54;;;;;;;2.00;1.80;;;;;;;9.85;43.10;101022.77;1786892;80;21046;-68
2022/03/10 08:49:20;;;;;;;2.35;2.12;;;;;;;9.89;43.08;101021.98;1785844;80;21545;-68
2022/03/10 08:51:48;;;;;;;2.58;2.37;;;;;;;9.94;43.06;101018.45;1786862;80;21061;-68
2022/03/10 08:54:14;;;;;;;2.42;2.00;;;;;;;9.97;43.04;101028.33;1785967;80;21247;-69
2022/03/10 08:56:42;;;;;;;2.60;1.95;;;;;;;10.02;43.03;101021.28;1779523;80;21470;-68
2022/03/10 08:59:08;;;;;;;2.22;1.92;;;;;;;10.07;42.98;101027.55;1787006;80;21037;-68
2022/03/10 09:01:34;;;;;;;2.77;2.33;;;;;;;10.11;42.95;101023.64;1787059;80;21056;-68
2022/03/10 09:04:02;;;;;;;2.40;2.15;;;;;;;10.15;43.00;101030.36;1787239;80;21501;-69
2022/03/10 09:06:29;;;;;;;2.40;2.00;;;;;;;10.20;43.04;101028.16;1760452;80;21123;-68
2022/03/10 09:08:56;;;;;;;2.60;2.15;;;;;;;10.24;43.05;101030.89;1755984;81;21093;-68
2022/03/10 09:11:22;;;;;;;2.45;1.98;;;;;;;10.30;43.06;101029.52;1756162;81;20994;-68
2022/03/10 09:13:49;;;;;;;3.00;2.10;;;;;;;10.34;43.01;101026.97;1769224;80;21053;-67
2022/03/10 09:16:17;;;;;;;2.10;1.85;;;;;;;10.38;42.94;101023.90;1787282;80;21023;-68
2022/03/10 09:18:45;;;;;;;3.30;2.60;;;;;;;10.43;42.92;101024.34;1787088;80;21069;-68
2022/03/10 09:21:13;;;;;;;2.75;2.25;;;;;;;10.49;42.89;101026.08;1786949;80;21007;-67
2022/03/10 09:23:40;;;;;;;2.17;1.90;;;;;;;10.54;42.86;101016.73;1785979;80;21493;-69
2022/03/10 09:26:06;;;;;;;2.30;1.90;;;;;;;10.63;42.87;101017.73;1785303;80;21455;-69
2022/03/10 09:28:32;;;;;;;2.42;1.95;;;;;;;10.69;42.88;101025.66;1783886;80;21393;-67
2022/03/10 09:30:59;;;;;;;2.77;1.85;;;;;;;10.74;42.88;101024.27;1783883;80;21212;-68
2022/03/10 09:33:26;;;;;;;3.05;2.30;;;;;;;10.80;42.85;101021.05;1783922;80;20990;-68
2022/03/10 09:35:52;;;;;;;3.08;2.20;;;;;;;10.89;42.98;101026.50;1783857;80;21066;-68
2022/03/10 09:38:19;;;;;;;2.30;1.80;;;;;;;10.96;43.05;101029.80;1783939;80;20998;-68
2022/03/10 09:40:47;;;;;;;2.30;1.98;;;;;;;11.05;42.92;101024.62;1782642;80;21037;-69
2022/03/10 09:43:13;;;;;;;2.25;2.02;;;;;;;11.12;42.91;101026.58;1784082;80;21097;-68
2022/03/10 09:45:40;;;;;;;2.85;1.98;;;;;;;11.19;42.90;101014.41;1783801;80;20990;-69
2022/03/10 09:48:06;;;;;;;2.72;2.22;;;;;;;11.28;42.89;101022.05;1783931;80;21033;-68
2022/03/10 09:50:33;;;;;;;2.83;2.27;;;;;;;11.37;42.79;101016.34;1783900;80;21501;-69
2022/03/10 09:52:59;;;;;;;2.72;2.00;;;;;;;11.45;42.79;101032.43;1783882;79;21513;-70
2022/03/10 09:55:26;;;;;;;2.50;2.30;;;;;;;11.52;42.93;101024.23;1717798;80;21782;-68
2022/03/10 09:57:53;;;;;;;2.05;1.85;;;;;;;11.61;43.01;101014.06;1783644;80;20984;-69
2022/03/10 10:00:19;;;;;;;3.08;2.12;;;;;;;11.71;43.11;101022.53;1780958;80;21089;-69
2022/03/10 10:02:46;;;;;;;2.83;2.15;;;;;;;11.78;43.29;101014.29;1780449;80;20998;-68
2022/03/10 10:05:31;;;;;;;2.45;2.20;;;;;;;11.87;43.43;101021.41;1783943;80;21037;-68
2022/03/10 10:08:13;;;;;;;2.17;1.90;;;;;;;11.95;43.51;101005.58;1783772;80;21138;-68
2022/03/10 10:10:47;;;;;;;2.27;1.98;;;;;;;12.05;43.59;101013.52;1783799;80;21089;-68
2022/03/10 10:13:34;;;;;;;2.35;1.57;;;;;;;12.14;43.72;101013.15;1769655;80;21014;-68
2022/03/10 10:16:07;;;;;;;2.25;1.90;;;;;;;12.23;43.66;101008.27;1753149;81;21084;-69
2022/03/10 10:18:35;;;;;;;2.40;1.90;;;;;;;12.32;43.68;101013.19;1753045;81;21017;-69
2022/03/10 10:21:03;;;;;;;1.80;1.65;;;;;;;12.41;43.70;101018.14;1752795;81;21295;-69
2022/03/10 10:23:34;;;;;;;1.50;1.37;;;;;;;12.49;43.74;101011.06;1752624;80;21501;-68
2022/03/10 10:26:13;;;;;;;2.83;2.15;;;;;;;12.59;43.59;101009.66;1752661;81;21057;-68
2022/03/10 10:28:45;;;;;;;3.15;1.85;;;;;;;12.69;43.62;101005.12;1752848;81;21623;-69
2022/03/10 10:31:22;;;;;;;2.58;1.92;;;;;;;12.77;43.61;101014.53;1753907;80;21028;-69
2022/03/10 10:34:08;;;;;;;2.42;1.98;;;;;;;12.88;43.44;101007.29;1752019;81;21187;-69
2022/03/10 10:36:36;;;;;;;2.00;1.65;;;;;;;12.99;43.41;100999.06;1752564;81;21058;-69
2022/03/10 10:39:16;;;;;;;2.17;1.70;;;;;;;13.09;43.17;100995.81;1753151;81;21050;-69
2022/03/10 10:41:45;;;;;;;3.25;2.50;;;;;;;13.20;42.91;101003.25;1752732;81;21046;-69
2022/03/10 10:44:19;;;;;;;2.22;1.90;;;;;;;13.30;42.74;101005.36;1753027;81;21065;-69
2022/03/10 10:46:49;;;;;;;2.10;1.90;;;;;;;13.40;42.66;101003.42;1753920;80;21134;-69
2022/03/10 10:49:18;;;;;;;1.87;1.75;;;;;;;13.50;42.51;101001.52;1751860;81;21017;-69
2022/03/10 10:51:51;;;;;;;1.47;1.37;;;;;;;13.60;42.47;101010.75;1759729;79;21211;-70
2022/03/10 10:54:24;;;;;;;2.10;1.90;;;;;;;13.71;42.27;101008.30;1783974;80;28190;-68
2022/03/10 10:56:54;;;;;;;2.33;1.77;;;;;;;13.81;42.16;101005.52;1784158;80;21026;-69
2022/03/10 10:59:38;;;;;;;1.85;1.72;;;;;;;13.91;42.14;100992.41;1783715;80;21242;-69
2022/03/10 11:02:21;;;;;;;2.47;1.90;;;;;;;14.00;42.05;100999.11;1784151;80;21498;-68
2022/03/10 11:04:54;;;;;;;2.12;1.92;;;;;;;14.10;41.96;100998.01;1782189;80;21585;-69
2022/03/10 11:07:22;;;;;;;2.58;2.17;;;;;;;14.22;41.88;101001.22;1776334;80;21046;-69
2022/03/10 11:09:50;;;;;;;2.27;1.62;;;;;;;14.31;41.75;101000.27;1784099;80;21026;-70
2022/03/10 11:12:18;;;;;;;2.33;1.90;;;;;;;14.41;41.68;100998.79;1783812;80;21038;-69
2022/03/10 11:14:45;;;;;;;2.02;1.50;;;;;;;14.52;41.61;101002.98;1783755;80;22048;-69
2022/03/10 11:17:13;;;;;;;1.62;1.52;;;;;;;14.61;41.55;101003.37;1783891;80;20983;-70
2022/03/10 11:19:46;;;;;;;2.20;1.60;;;;;;;14.71;41.46;101009.41;1784068;80;21501;-69
2022/03/10 11:22:41;;;;;;;1.90;1.80;;;;;;;14.81;41.41;101005.24;1760415;80;21030;-69
2022/03/10 11:25:44;;;;;;;1.90;1.70;;;;;;;14.91;41.35;100998.40;1753010;81;21149;-69
2022/03/10 11:28:28;;;;;;;2.35;1.72;;;;;;;15.03;41.33;100994.92;1752692;81;21014;-70
2022/03/10 11:30:57;;;;;;;1.80;1.47;;;;;;;15.14;41.33;100991.41;1752696;81;21097;-69
2022/03/10 11:33:33;;;;;;;3.08;1.80;;;;;;;15.25;41.29;100992.06;1752751;81;21069;-69
2022/03/10 11:36:14;;;;;;;2.12;1.77;;;;;;;15.34;41.17;100995.08;1752890;81;21034;-69
2022/03/10 11:41:14;;;;;;;2.15;1.70;;;;;;;15.61;41.02;100975.63;1889449;76;27978;-70
2022/03/10 11:43:40;;;;;;;2.02;1.77;;;;;;;15.65;40.96;100981.80;1827197;77;21496;-68